Time;durP1;ratioP1;P1;durP2;ratioP2;P2;SDS_P1;SDS_P2;PMS_P1;PMS_P2;Temp;Humidity;BMP_temperature;BMP_pressure;BME280_temperature;BME280_humidity;BME280_pressure;Samples;Min_cycle;Max_cycle;Signal;HPM_P1;HPM_P2
2024/03/11 00:01:34;;;;;;;;;;;20.90;99.90;;;;;;5069159;28;20401;-58
2024/03/11 00:04:00;;;;;;;10.73;4.30;;;21.00;99.90;;;;;;5073068;28;19912;-56
2024/03/11 00:06:27;;;;;;;14.70;4.47;;;20.90;99.90;;;;;;5072823;28;20020;-59
2024/03/11 00:08:53;;;;;;;9.65;4.43;;;20.90;99.90;;;;;;5072653;28;20384;-59
2024/03/11 00:11:19;;;;;;;11.80;3.55;;;20.90;99.90;;;;;;5072832;28;20023;-59
2024/03/11 00:13:46;;;;;;;8.93;3.45;;;20.90;99.90;;;;;;5072725;28;20419;-58
2024/03/11 00:16:12;;;;;;;7.68;3.08;;;20.90;99.90;;;;;;5072766;28;20524;-57
2024/03/11 00:18:40;;;;;;;11.98;4.20;;;20.90;99.90;;;;;;5067531;28;20105;-57
2024/03/11 00:21:06;;;;;;;8.15;3.90;;;20.90;99.90;;;;;;5063448;28;20385;-57
2024/03/11 00:23:33;;;;;;;9.48;3.53;;;20.90;99.90;;;;;;5067400;28;20054;-57
2024/03/11 00:25:59;;;;;;;9.65;3.58;;;20.90;99.90;;;;;;5072468;28;20021;-57
2024/03/11 00:28:25;;;;;;;6.07;2.78;;;20.90;99.90;;;;;;5072272;28;20024;-56
2024/03/11 00:30:54;;;;;;;12.18;3.83;;;20.90;99.90;;;;;;5072102;28;20035;-56
2024/03/11 00:33:20;;;;;;;7.43;3.10;;;20.90;99.90;;;;;;5071415;28;20122;-53
2024/03/11 00:35:46;;;;;;;9.63;4.10;;;20.90;99.90;;;;;;5050705;28;20362;-54
2024/03/11 00:38:12;;;;;;;9.38;3.70;;;20.90;99.90;;;;;;5069632;28;20048;-55
2024/03/11 00:40:38;;;;;;;8.70;3.25;;;20.90;99.90;;;;;;5072131;28;20031;-55
2024/03/11 00:43:05;;;;;;;7.47;2.97;;;20.90;99.90;;;;;;5071227;28;20025;-55
2024/03/11 00:45:31;;;;;;;6.30;3.30;;;20.90;99.90;;;;;;5071831;28;20032;-54
2024/03/11 00:47:57;;;;;;;8.88;3.80;;;20.90;99.90;;;;;;5071841;28;20108;-54
2024/03/11 00:50:24;;;;;;;5.25;3.05;;;20.90;99.90;;;;;;5072191;28;20107;-55
2024/03/11 00:52:50;;;;;;;9.75;3.05;;;20.90;99.90;;;;;;5072052;28;20048;-55
2024/03/11 00:55:17;;;;;;;6.93;2.88;;;20.80;99.90;;;;;;5072002;28;20454;-55
2024/03/11 00:57:43;;;;;;;5.32;2.75;;;20.80;99.90;;;;;;5071636;28;20009;-53
2024/03/11 01:00:13;;;;;;;8.90;3.00;;;20.80;99.90;;;;;;5071592;28;20035;-55
2024/03/11 01:02:39;;;;;;;7.03;3.17;;;20.80;99.90;;;;;;5070642;28;20068;-56
2024/03/11 01:05:05;;;;;;;8.30;3.67;;;20.80;99.90;;;;;;5072005;28;20392;-55
2024/03/11 01:07:35;;;;;;;7.10;2.97;;;20.80;99.90;;;;;;5071935;28;20017;-55
2024/03/11 01:10:02;;;;;;;5.70;2.72;;;20.80;99.90;;;;;;5071337;28;20063;-56
2024/03/11 01:12:28;;;;;;;6.75;3.30;;;20.80;99.90;;;;;;5072225;28;20016;-56
2024/03/11 01:14:55;;;;;;;7.68;2.97;;;20.80;99.90;;;;;;5071445;28;20028;-55
2024/03/11 01:17:21;;;;;;;6.13;3.10;;;20.80;99.90;;;;;;5069408;28;20021;-54
2024/03/11 01:19:47;;;;;;;5.70;2.95;;;20.80;99.90;;;;;;5071994;28;20352;-55
2024/03/11 01:22:13;;;;;;;10.35;4.53;;;20.80;99.90;;;;;;5071750;28;20381;-56
2024/03/11 01:24:39;;;;;;;6.15;2.90;;;20.80;99.90;;;;;;5070874;28;20028;-57
2024/03/11 01:27:10;;;;;;;7.82;3.30;;;20.80;99.90;;;;;;5071931;28;20119;-54
2024/03/11 01:29:46;;;;;;;8.18;3.10;;;20.80;99.90;;;;;;5071481;28;20035;-56
2024/03/11 01:32:11;;;;;;;10.65;3.08;;;20.80;99.90;;;;;;5071537;28;20100;-57
2024/03/11 01:34:40;;;;;;;7.03;3.10;;;20.70;99.90;;;;;;5071855;28;20111;-56
2024/03/11 01:37:06;;;;;;;4.07;3.00;;;20.70;99.90;;;;;;5071582;28;20033;-56
2024/03/11 01:39:44;;;;;;;6.88;2.90;;;20.70;99.90;;;;;;5071371;28;20051;-55
2024/03/11 01:42:15;;;;;;;6.18;3.17;;;20.80;99.90;;;;;;5053779;28;20043;-57
2024/03/11 01:44:50;;;;;;;4.82;2.60;;;20.80;99.90;;;;;;5071468;28;20020;-56
2024/03/11 01:47:18;;;;;;;4.55;2.70;;;20.80;99.90;;;;;;5071667;28;20031;-57
2024/03/11 01:49:52;;;;;;;8.15;3.03;;;20.80;99.90;;;;;;5071833;28;20020;-56
2024/03/11 01:52:23;;;;;;;5.03;2.78;;;20.70;99.90;;;;;;5053593;28;20071;-57
2024/03/11 01:54:51;;;;;;;5.63;2.78;;;20.70;99.90;;;;;;5075024;28;20070;-58
2024/03/11 01:57:18;;;;;;;9.50;3.05;;;20.70;99.90;;;;;;5075506;28;20107;-56
2024/03/11 01:59:45;;;;;;;4.25;2.33;;;20.70;99.90;;;;;;5057203;28;20027;-56
2024/03/11 02:02:12;;;;;;;5.83;2.90;;;20.70;99.90;;;;;;5075432;28;20053;-55
2024/03/11 02:04:44;;;;;;;6.73;3.37;;;20.70;99.90;;;;;;5074971;28;20555;-55
2024/03/11 02:07:13;;;;;;;6.35;3.00;;;20.70;99.90;;;;;;5075195;28;20029;-55
2024/03/11 02:09:40;;;;;;;5.00;2.70;;;20.60;99.90;;;;;;5054948;28;20024;-55
2024/03/11 02:12:08;;;;;;;5.47;2.65;;;20.60;99.90;;;;;;5075417;28;20372;-54
2024/03/11 02:14:33;;;;;;;7.57;3.22;;;20.60;99.90;;;;;;5074839;28;20067;-54
2024/03/11 02:16:59;;;;;;;5.63;3.58;;;20.60;99.90;;;;;;5074924;28;20147;-55
2024/03/11 02:19:26;;;;;;;6.90;2.75;;;20.60;99.90;;;;;;5064476;28;20024;-55
2024/03/11 02:21:52;;;;;;;7.05;3.15;;;20.60;99.90;;;;;;5066910;28;20020;-55
2024/03/11 02:24:18;;;;;;;5.47;3.42;;;20.60;99.90;;;;;;5074600;28;20039;-56
2024/03/11 02:26:47;;;;;;;4.78;2.80;;;20.60;99.90;;;;;;5074939;28;20038;-55
2024/03/11 02:29:16;;;;;;;5.85;3.03;;;20.60;99.90;;;;;;5074640;28;20016;-55
2024/03/11 02:31:46;;;;;;;6.28;3.08;;;20.60;99.90;;;;;;5074377;28;20032;-55
2024/03/11 02:34:14;;;;;;;10.20;3.40;;;20.60;99.90;;;;;;5074301;28;20344;-55
2024/03/11 02:36:46;;;;;;;;;;;20.60;99.90;;;;;;5075175;28;20090;-55
2024/03/11 02:39:15;;;;;;;6.15;2.40;;;20.60;99.90;;;;;;5074283;28;19958;-55
2024/03/11 02:41:44;;;;;;;4.97;2.47;;;20.60;99.90;;;;;;5056693;28;20078;-57
2024/03/11 02:44:14;;;;;;;6.85;2.90;;;20.60;99.90;;;;;;5074332;28;20032;-55
2024/03/11 02:46:43;;;;;;;4.95;3.22;;;20.60;99.90;;;;;;5074139;28;20031;-56
2024/03/11 02:49:12;;;;;;;7.07;3.17;;;20.60;99.90;;;;;;5074362;28;20468;-55
2024/03/11 02:51:38;;;;;;;5.75;3.15;;;20.60;99.90;;;;;;5043423;28;20020;-55
2024/03/11 02:54:05;;;;;;;15.50;3.42;;;20.60;99.90;;;;;;5074045;28;20425;-55
2024/03/11 02:56:31;;;;;;;7.03;2.85;;;20.50;99.90;;;;;;5074447;28;20069;-56
2024/03/11 02:58:58;;;;;;;6.03;3.45;;;20.60;99.90;;;;;;5074367;28;20111;-56
2024/03/11 03:01:24;;;;;;;6.43;3.42;;;20.50;99.90;;;;;;5055949;28;20127;-56
2024/03/11 03:03:50;;;;;;;9.50;2.55;;;20.50;99.90;;;;;;5074380;28;20507;-54
2024/03/11 03:06:16;;;;;;;4.45;3.08;;;20.50;99.90;;;;;;5072389;28;20510;-55
2024/03/11 03:08:45;;;;;;;4.70;3.00;;;20.50;99.90;;;;;;5074402;28;20028;-55
2024/03/11 03:11:11;;;;;;;9.13;2.92;;;20.50;99.90;;;;;;5074171;28;20659;-55
2024/03/11 03:13:38;;;;;;;6.00;2.88;;;20.50;99.90;;;;;;5056435;28;20017;-54
2024/03/11 03:16:04;;;;;;;6.35;3.35;;;20.50;99.90;;;;;;5073612;28;20059;-54
2024/03/11 03:18:30;;;;;;;8.65;3.53;;;20.50;99.90;;;;;;5074284;28;20029;-53
2024/03/11 03:20:55;;;;;;;7.97;3.70;;;20.50;99.90;;;;;;5073876;28;20028;-54
2024/03/11 03:23:21;;;;;;;4.32;2.80;;;20.50;99.90;;;;;;5073931;28;20028;-55
2024/03/11 03:25:47;;;;;;;4.25;2.45;;;20.50;99.90;;;;;;5049529;28;20062;-56
2024/03/11 03:28:13;;;;;;;4.60;3.08;;;20.50;99.90;;;;;;5073763;28;20087;-55
2024/03/11 03:30:40;;;;;;;6.38;2.42;;;20.50;99.90;;;;;;5073804;28;20070;-56
2024/03/11 03:33:06;;;;;;;4.97;2.83;;;20.50;99.90;;;;;;5069522;28;20017;-58
2024/03/11 03:35:32;;;;;;;4.43;2.60;;;20.40;99.90;;;;;;5057513;28;20025;-56
2024/03/11 03:37:59;;;;;;;4.97;2.63;;;20.40;99.90;;;;;;5055701;28;20024;-56
2024/03/11 03:40:25;;;;;;;5.22;3.28;;;20.40;99.90;;;;;;5038197;28;20025;-56
2024/03/11 03:42:51;;;;;;;4.70;2.30;;;20.40;99.90;;;;;;5068526;28;20032;-56
2024/03/11 03:45:18;;;;;;;4.90;2.95;;;20.40;99.90;;;;;;5073683;28;20102;-55
2024/03/11 03:47:45;;;;;;;8.70;2.83;;;20.40;99.90;;;;;;5055316;28;20020;-56
2024/03/11 03:50:12;;;;;;;5.15;2.92;;;20.40;99.90;;;;;;5055891;28;20025;-56
2024/03/11 03:52:42;;;;;;;5.35;2.70;;;20.40;99.90;;;;;;5038695;28;20021;-56
2024/03/11 03:55:11;;;;;;;3.80;2.30;;;20.30;99.90;;;;;;5055407;28;20543;-56
2024/03/11 03:57:44;;;;;;;3.92;2.55;;;20.30;99.90;;;;;;5073172;28;20024;-55
2024/03/11 04:00:16;;;;;;;4.75;2.67;;;20.30;99.90;;;;;;5073497;28;20032;-56
2024/03/11 04:02:46;;;;;;;7.60;2.72;;;20.30;99.90;;;;;;5051449;28;20033;-55
2024/03/11 04:05:12;;;;;;;9.93;3.20;;;20.30;99.90;;;;;;5054480;28;20378;-55
2024/03/11 04:07:40;;;;;;;6.20;2.65;;;20.30;99.90;;;;;;5044966;28;20412;-55
2024/03/11 04:10:13;;;;;;;7.13;2.75;;;20.30;99.90;;;;;;5073092;28;20099;-55
2024/03/11 04:12:44;;;;;;;9.10;3.28;;;20.30;99.90;;;;;;5072954;28;20380;-56
2024/03/11 04:15:12;;;;;;;3.85;2.45;;;20.30;99.90;;;;;;5072885;28;20380;-55
2024/03/11 04:17:39;;;;;;;4.57;2.33;;;20.30;99.90;;;;;;5072823;28;20044;-55
2024/03/11 04:20:11;;;;;;;5.95;2.58;;;20.20;99.90;;;;;;5072577;28;20023;-55
2024/03/11 04:22:46;;;;;;;4.63;2.60;;;20.20;99.90;;;;;;5054838;28;20381;-55
2024/03/11 04:25:16;;;;;;;5.47;2.42;;;20.20;99.90;;;;;;5072174;28;20059;-55
2024/03/11 04:27:43;;;;;;;5.90;2.60;;;20.20;99.90;;;;;;5072742;28;20020;-55
2024/03/11 04:30:10;;;;;;;4.13;2.38;;;20.20;99.90;;;;;;5054547;28;20024;-55
2024/03/11 04:32:35;;;;;;;6.78;2.38;;;20.20;99.90;;;;;;5072549;28;20052;-55
2024/03/11 04:35:04;;;;;;;5.15;2.50;;;20.20;99.90;;;;;;5053940;28;20062;-55
2024/03/11 04:37:30;;;;;;;5.03;2.60;;;20.20;99.90;;;;;;5070545;28;20074;-56
2024/03/11 04:39:56;;;;;;;6.05;2.38;;;20.20;99.90;;;;;;5070607;28;20268;-56
2024/03/11 04:42:22;;;;;;;3.35;2.38;;;20.10;99.90;;;;;;5070664;28;20484;-56
2024/03/11 04:44:49;;;;;;;4.80;2.42;;;20.10;99.90;;;;;;5070538;28;20025;-55
2024/03/11 04:47:15;;;;;;;5.55;2.47;;;20.10;99.90;;;;;;5070527;28;20085;-55
2024/03/11 04:49:42;;;;;;;4.82;2.53;;;20.10;99.90;;;;;;5070406;28;20021;-55
2024/03/11 04:52:12;;;;;;;7.18;2.88;;;20.10;99.90;;;;;;5068520;28;20023;-55
2024/03/11 04:54:37;;;;;;;4.05;2.50;;;20.10;99.90;;;;;;5038210;28;20076;-56
2024/03/11 04:57:03;;;;;;;4.15;2.35;;;20.10;99.90;;;;;;5050647;28;20377;-54
2024/03/11 04:59:29;;;;;;;5.43;2.53;;;20.10;99.90;;;;;;5051540;28;20081;-55
2024/03/11 05:01:55;;;;;;;5.93;2.60;;;20.10;99.90;;;;;;5053148;28;20159;-55
2024/03/11 05:04:21;;;;;;;5.70;2.67;;;20.00;99.90;;;;;;5051846;28;20029;-54
2024/03/11 05:06:46;;;;;;;5.30;2.83;;;20.00;99.90;;;;;;5050047;28;20339;-55
2024/03/11 05:09:12;;;;;;;4.72;2.33;;;20.00;99.90;;;;;;5050167;28;20432;-54
2024/03/11 05:11:38;;;;;;;7.28;3.10;;;20.00;99.90;;;;;;5050049;28;20385;-54
2024/03/11 05:14:06;;;;;;;5.40;2.53;;;20.00;99.90;;;;;;5050218;28;20096;-55
2024/03/11 05:16:32;;;;;;;7.60;3.00;;;20.00;99.90;;;;;;5050067;28;20036;-55
2024/03/11 05:18:58;;;;;;;4.70;3.10;;;20.00;99.90;;;;;;5050099;28;20025;-55
2024/03/11 05:21:25;;;;;;;6.32;2.95;;;20.00;99.90;;;;;;5052256;28;20025;-55
2024/03/11 05:23:51;;;;;;;5.15;2.95;;;20.00;99.90;;;;;;5052152;28;20155;-55
2024/03/11 05:26:18;;;;;;;7.35;2.78;;;20.00;99.90;;;;;;5052059;28;20044;-55
2024/03/11 05:28:44;;;;;;;4.63;2.55;;;19.90;99.90;;;;;;5051692;28;20083;-55
2024/03/11 05:31:11;;;;;;;4.22;2.35;;;20.00;99.90;;;;;;5052026;28;20104;-55
2024/03/11 05:33:36;;;;;;;4.97;3.28;;;19.90;99.90;;;;;;5051969;28;20021;-55
2024/03/11 05:36:03;;;;;;;4.82;2.80;;;19.90;99.90;;;;;;5034292;28;20109;-55
2024/03/11 05:38:28;;;;;;;4.05;2.60;;;19.90;99.90;;;;;;5034402;28;20106;-55
2024/03/11 05:40:54;;;;;;;3.22;2.58;;;19.90;99.90;;;;;;5052088;28;20061;-55
2024/03/11 05:43:22;;;;;;;4.32;3.00;;;19.90;99.90;;;;;;5051914;28;20033;-55
2024/03/11 05:45:48;;;;;;;5.90;2.90;;;19.90;99.90;;;;;;5051658;28;20641;-55
2024/03/11 05:48:17;;;;;;;5.35;2.97;;;19.90;99.90;;;;;;5051875;28;20025;-56
2024/03/11 05:50:43;;;;;;;6.20;3.97;;;19.90;99.90;;;;;;5051941;28;20078;-55
2024/03/11 05:53:09;;;;;;;5.10;3.38;;;19.90;99.90;;;;;;5034164;28;20377;-56
2024/03/11 05:55:36;;;;;;;5.88;2.75;;;19.90;99.90;;;;;;5051777;28;20044;-55
2024/03/11 05:58:14;;;;;;;5.05;3.35;;;19.90;99.90;;;;;;5051803;28;20159;-56
2024/03/11 06:00:46;;;;;;;6.53;3.40;;;19.80;99.90;;;;;;5051714;28;20033;-57
2024/03/11 06:03:12;;;;;;;5.43;3.28;;;19.80;99.90;;;;;;5051814;28;20137;-56
2024/03/11 06:05:38;;;;;;;6.15;3.50;;;19.80;99.90;;;;;;5050612;28;20047;-56
2024/03/11 06:08:05;;;;;;;8.48;3.67;;;19.80;99.90;;;;;;5050030;28;20025;-55
2024/03/11 06:10:30;;;;;;;5.38;3.22;;;19.80;99.90;;;;;;5050209;28;20025;-56
2024/03/11 06:12:57;;;;;;;5.72;3.35;;;19.80;99.90;;;;;;5051906;28;20021;-55
2024/03/11 06:15:26;;;;;;;6.35;3.83;;;19.80;99.90;;;;;;5051573;28;20021;-55
2024/03/11 06:17:52;;;;;;;5.97;3.42;;;19.80;99.90;;;;;;5034426;28;20021;-55
2024/03/11 06:20:20;;;;;;;5.68;3.28;;;19.80;99.90;;;;;;5051532;28;20028;-55
2024/03/11 06:22:46;;;;;;;6.50;2.90;;;19.80;99.90;;;;;;5051467;28;20028;-56
2024/03/11 06:25:12;;;;;;;5.40;3.33;;;19.80;99.90;;;;;;5017132;28;20103;-55
2024/03/11 06:27:39;;;;;;;7.20;3.70;;;19.80;99.90;;;;;;5051492;28;20485;-55
2024/03/11 06:30:05;;;;;;;6.65;4.03;;;19.80;99.90;;;;;;5051585;28;20082;-55
2024/03/11 06:32:32;;;;;;;6.60;3.60;;;19.80;99.90;;;;;;5051433;28;20051;-55
2024/03/11 06:34:58;;;;;;;6.30;3.75;;;19.70;99.90;;;;;;5051597;28;20021;-56
2024/03/11 06:37:23;;;;;;;6.30;4.00;;;19.70;99.90;;;;;;5051236;28;20047;-56
2024/03/11 06:39:49;;;;;;;6.88;3.22;;;19.70;99.90;;;;;;5051833;28;20029;-55
2024/03/11 06:42:15;;;;;;;7.05;4.07;;;19.70;99.90;;;;;;5054981;28;20075;-55
2024/03/11 06:44:41;;;;;;;9.52;4.22;;;19.70;99.90;;;;;;5054717;28;20056;-55
2024/03/11 06:47:14;;;;;;;6.30;3.35;;;19.70;99.90;;;;;;5054810;28;20490;-55
2024/03/11 06:49:40;;;;;;;5.63;3.28;;;19.70;99.90;;;;;;5054642;28;20025;-55
2024/03/11 06:52:07;;;;;;;6.40;3.55;;;19.70;99.90;;;;;;5036697;28;20468;-55
2024/03/11 06:54:33;;;;;;;6.07;3.42;;;19.70;99.90;;;;;;5054694;28;20021;-55
2024/03/11 06:57:00;;;;;;;6.75;4.20;;;19.70;99.90;;;;;;5054779;28;20025;-56
2024/03/11 06:59:28;;;;;;;8.10;4.13;;;19.70;99.90;;;;;;5036578;28;20450;-55
2024/03/11 07:01:54;;;;;;;7.50;3.90;;;19.70;99.90;;;;;;5054369;28;20489;-56
2024/03/11 07:04:20;;;;;;;11.38;3.55;;;19.70;99.90;;;;;;5054347;28;20070;-56
2024/03/11 07:06:46;;;;;;;6.40;3.60;;;19.70;99.90;;;;;;5054601;28;20051;-56
2024/03/11 07:09:12;;;;;;;7.57;4.18;;;19.70;99.90;;;;;;5036739;28;20013;-56
2024/03/11 07:11:38;;;;;;;5.63;3.45;;;19.70;99.90;;;;;;5054306;28;20425;-55
2024/03/11 07:14:04;;;;;;;6.63;4.18;;;19.70;99.90;;;;;;5054320;28;20409;-55
2024/03/11 07:16:31;;;;;;;6.88;3.88;;;19.70;99.90;;;;;;5054654;28;20100;-56
2024/03/11 07:18:57;;;;;;;6.05;3.85;;;19.70;99.90;;;;;;5036367;28;20490;-55
2024/03/11 07:21:29;;;;;;;7.20;3.70;;;19.70;99.90;;;;;;5054080;28;20533;-55
2024/03/11 07:23:55;;;;;;;6.68;3.75;;;19.70;99.90;;;;;;5036190;28;20029;-56
2024/03/11 07:26:22;;;;;;;6.47;3.17;;;19.70;99.90;;;;;;5054071;28;20437;-56
2024/03/11 07:28:47;;;;;;;4.85;3.10;;;19.70;99.90;;;;;;5054013;28;20033;-55
2024/03/11 07:31:13;;;;;;;7.03;3.17;;;19.70;99.90;;;;;;5054066;28;20032;-56
2024/03/11 07:33:39;;;;;;;4.57;3.03;;;19.70;99.90;;;;;;5053902;28;20100;-56
2024/03/11 07:36:07;;;;;;;6.80;3.85;;;19.70;99.90;;;;;;5053938;28;20029;-56
2024/03/11 07:38:32;;;;;;;6.00;3.47;;;19.70;99.90;;;;;;5054193;28;20074;-56
2024/03/11 07:40:59;;;;;;;6.97;4.07;;;19.70;99.90;;;;;;5053811;28;20380;-56
2024/03/11 07:43:25;;;;;;;6.82;3.30;;;19.80;99.90;;;;;;5035904;28;20112;-55
2024/03/11 07:45:51;;;;;;;6.50;3.65;;;19.70;99.90;;;;;;5053493;28;20037;-56
2024/03/11 07:48:17;;;;;;;6.18;3.40;;;19.70;99.90;;;;;;5053690;28;20021;-55
2024/03/11 07:50:44;;;;;;;6.60;3.55;;;19.80;99.90;;;;;;5053113;28;20103;-55
2024/03/11 07:53:12;;;;;;;6.40;3.33;;;19.80;99.90;;;;;;5053654;28;20029;-55
2024/03/11 07:55:39;;;;;;;6.13;3.13;;;19.80;99.90;;;;;;5053450;28;20021;-55
2024/03/11 07:58:06;;;;;;;9.50;3.70;;;19.80;99.90;;;;;;5053823;28;20016;-54
2024/03/11 08:00:36;;;;;;;6.45;3.50;;;19.80;99.90;;;;;;5053372;28;20266;-54
2024/03/11 08:03:03;;;;;;;10.27;3.58;;;19.80;99.90;;;;;;5053602;28;20032;-55
2024/03/11 08:05:29;;;;;;;6.70;3.53;;;19.80;99.90;;;;;;5053283;28;20116;-55
2024/03/11 08:07:56;;;;;;;7.50;4.15;;;19.80;99.90;;;;;;5035448;28;20028;-55
2024/03/11 08:10:25;;;;;;;7.60;3.72;;;19.90;99.90;;;;;;5053311;28;20516;-55
2024/03/11 08:12:51;;;;;;;9.63;3.85;;;19.80;99.90;;;;;;5053073;28;20159;-56
2024/03/11 08:15:17;;;;;;;9.27;4.32;;;19.80;99.90;;;;;;5053138;28;20025;-56
2024/03/11 08:17:48;;;;;;;4.53;3.40;;;19.80;99.90;;;;;;5053158;28;20024;-56
2024/03/11 08:20:18;;;;;;;7.00;3.53;;;19.80;99.90;;;;;;5053111;28;20017;-56
2024/03/11 08:22:48;;;;;;;8.35;3.70;;;19.80;99.90;;;;;;5053095;28;20021;-56
2024/03/11 08:25:22;;;;;;;6.55;3.42;;;19.80;99.90;;;;;;5052905;28;20029;-56
2024/03/11 08:27:51;;;;;;;8.13;4.05;;;19.80;99.90;;;;;;5052783;28;20032;-56
2024/03/11 08:30:18;;;;;;;7.10;3.40;;;19.90;99.90;;;;;;5052824;28;20021;-56
2024/03/11 08:32:46;;;;;;;5.60;3.47;;;19.90;99.90;;;;;;5052856;28;20079;-55
2024/03/11 08:35:14;;;;;;;6.28;3.63;;;19.90;99.90;;;;;;5052836;28;20285;-55
2024/03/11 08:37:41;;;;;;;6.88;3.58;;;19.90;99.90;;;;;;5052907;28;20021;-56
2024/03/11 08:40:08;;;;;;;6.80;3.50;;;19.90;99.90;;;;;;5052980;28;20025;-56
2024/03/11 08:42:35;;;;;;;6.03;3.72;;;19.90;99.90;;;;;;5052767;28;20021;-55
2024/03/11 08:45:01;;;;;;;6.72;3.58;;;19.90;99.90;;;;;;5052522;28;20040;-55
2024/03/11 08:47:28;;;;;;;7.80;3.80;;;19.90;99.90;;;;;;5052706;28;20025;-56
2024/03/11 08:49:54;;;;;;;5.75;3.33;;;19.90;99.90;;;;;;5052658;28;20021;-57
2024/03/11 08:52:20;;;;;;;7.38;4.22;;;20.00;99.90;;;;;;5052581;28;20032;-56
2024/03/11 08:54:46;;;;;;;7.60;3.83;;;19.90;99.90;;;;;;5052531;28;20021;-56
2024/03/11 08:57:18;;;;;;;6.22;3.42;;;20.00;99.90;;;;;;5052529;28;20021;-55
2024/03/11 08:59:45;;;;;;;7.70;3.70;;;20.00;99.90;;;;;;5034448;28;20100;-56
2024/03/11 09:02:13;;;;;;;4.75;3.35;;;20.00;99.90;;;;;;5051889;28;20049;-56
2024/03/11 09:04:39;;;;;;;4.78;3.80;;;20.00;99.90;;;;;;5052210;28;20384;-56
2024/03/11 09:07:04;;;;;;;5.63;3.53;;;20.00;99.90;;;;;;5052393;28;20025;-54
2024/03/11 09:09:32;;;;;;;7.80;4.13;;;20.00;99.90;;;;;;5052128;28;20152;-55
2024/03/11 09:11:57;;;;;;;4.85;3.28;;;20.00;99.90;;;;;;5052088;28;20036;-55
2024/03/11 09:14:32;;;;;;;5.07;3.47;;;20.00;99.90;;;;;;5034231;28;20033;-55
2024/03/11 09:17:00;;;;;;;5.03;3.58;;;20.00;99.90;;;;;;5052157;28;20036;-55
2024/03/11 09:19:27;;;;;;;5.43;3.63;;;20.10;99.90;;;;;;5052005;28;20469;-55
2024/03/11 09:21:53;;;;;;;5.35;3.33;;;20.00;99.90;;;;;;5052067;28;20044;-55
2024/03/11 09:24:20;;;;;;;7.82;3.83;;;20.10;99.90;;;;;;5052048;28;20548;-55
2024/03/11 09:26:49;;;;;;;8.60;3.78;;;20.10;99.90;;;;;;5051996;28;20037;-55
2024/03/11 09:29:16;;;;;;;6.97;3.47;;;20.10;99.90;;;;;;5051898;28;20021;-57
2024/03/11 09:31:42;;;;;;;5.63;3.58;;;20.10;99.90;;;;;;5052026;28;20386;-55
2024/03/11 09:34:08;;;;;;;5.78;2.95;;;20.10;99.90;;;;;;5052078;28;20497;-54
2024/03/11 09:36:38;;;;;;;5.53;3.33;;;20.10;99.90;;;;;;5033968;28;20021;-55
2024/03/11 09:39:11;;;;;;;7.80;3.65;;;20.20;99.90;;;;;;5051928;28;20071;-55
2024/03/11 09:41:42;;;;;;;6.28;3.55;;;20.20;99.90;;;;;;5035401;28;20017;-56
2024/03/11 09:44:26;;;;;;;7.05;3.47;;;20.20;99.90;;;;;;5052041;28;20068;-55
2024/03/11 09:46:52;;;;;;;4.53;3.45;;;20.20;99.90;;;;;;5051674;28;20032;-55
2024/03/11 09:49:23;;;;;;;7.13;3.42;;;20.20;99.90;;;;;;5051816;28;20499;-55
2024/03/11 09:51:50;;;;;;;5.75;3.58;;;20.20;99.90;;;;;;5051744;28;20021;-54
2024/03/11 09:54:17;;;;;;;6.15;3.28;;;20.30;99.90;;;;;;5051697;28;20017;-55
2024/03/11 09:56:48;;;;;;;6.18;3.40;;;20.30;99.90;;;;;;5051852;28;20035;-54
2024/03/11 09:59:19;;;;;;;10.57;3.53;;;20.30;99.90;;;;;;5051768;28;20477;-54
2024/03/11 10:01:54;;;;;;;7.25;3.40;;;20.30;99.90;;;;;;5051579;28;20075;-55
2024/03/11 10:04:23;;;;;;;4.53;2.95;;;20.30;99.90;;;;;;5051800;28;20063;-55
2024/03/11 10:06:56;;;;;;;5.80;3.25;;;20.40;99.90;;;;;;5051637;28;20036;-55
2024/03/11 10:09:31;;;;;;;5.90;3.90;;;20.40;99.90;;;;;;5051597;28;20455;-55
2024/03/11 10:12:02;;;;;;;5.47;3.25;;;20.50;99.90;;;;;;5051613;28;20439;-55
2024/03/11 10:14:31;;;;;;;4.95;3.10;;;20.50;99.90;;;;;;5053021;28;20025;-55
2024/03/11 10:17:24;;;;;;;6.28;3.58;;;20.50;99.90;;;;;;5055395;28;20095;-55
2024/03/11 10:19:58;;;;;;;6.97;3.33;;;20.60;99.90;;;;;;5055371;28;20550;-54
2024/03/11 10:22:29;;;;;;;5.80;3.58;;;20.60;99.90;;;;;;5055388;28;20024;-54
2024/03/11 10:24:57;;;;;;;6.55;3.30;;;20.60;99.90;;;;;;5055068;28;20423;-54
2024/03/11 10:27:39;;;;;;;6.68;4.07;;;20.60;99.90;;;;;;5055139;28;20021;-54
2024/03/11 10:30:20;;;;;;;6.80;3.92;;;20.70;99.90;;;;;;5055266;28;20524;-54
2024/03/11 10:32:52;;;;;;;6.63;3.60;;;20.70;99.90;;;;;;5054952;28;20108;-54
2024/03/11 10:35:21;;;;;;;6.07;3.40;;;20.80;99.90;;;;;;5054997;28;20089;-55
2024/03/11 10:37:50;;;;;;;10.40;3.53;;;20.80;99.90;;;;;;5054964;28;20048;-55
2024/03/11 10:40:19;;;;;;;4.28;3.50;;;20.80;99.90;;;;;;5054992;28;20021;-55
2024/03/11 10:42:54;;;;;;;5.20;3.92;;;20.80;99.90;;;;;;5037759;28;20021;-55
2024/03/11 10:45:37;;;;;;;7.53;3.80;;;20.80;99.90;;;;;;5054747;28;20036;-54
2024/03/11 10:48:09;;;;;;;5.82;3.63;;;20.90;99.90;;;;;;5054848;28;20049;-55
2024/03/11 10:50:35;;;;;;;7.75;4.13;;;20.90;99.90;;;;;;5054816;28;20021;-55
2024/03/11 10:53:06;;;;;;;6.63;4.20;;;20.90;99.90;;;;;;5054745;28;20108;-55
2024/03/11 10:55:34;;;;;;;8.38;3.42;;;20.90;99.90;;;;;;5054373;28;20484;-56
2024/03/11 10:58:04;;;;;;;5.13;3.55;;;21.00;99.90;;;;;;5054443;28;20399;-55
2024/03/11 11:00:34;;;;;;;6.30;3.28;;;21.00;99.90;;;;;;5054469;28;20029;-55
2024/03/11 11:03:12;;;;;;;5.32;3.35;;;21.00;99.90;;;;;;5054611;28;20072;-55
2024/03/11 11:05:52;;;;;;;8.15;3.45;;;21.10;99.90;;;;;;5054375;28;20504;-55
2024/03/11 11:08:30;;;;;;;7.25;3.63;;;21.10;99.90;;;;;;5054185;28;20024;-55
2024/03/11 11:11:02;;;;;;;8.00;4.20;;;21.10;99.90;;;;;;5037382;28;20043;-55
2024/03/11 11:13:34;;;;;;;7.93;4.30;;;21.20;99.90;;;;;;5054258;28;20552;-54
2024/03/11 11:16:03;;;;;;;7.90;3.50;;;21.20;99.90;;;;;;5054270;28;20397;-55
2024/03/11 11:18:33;;;;;;;9.45;3.75;;;21.20;99.90;;;;;;5036226;28;20370;-55
2024/03/11 11:21:00;;;;;;;5.82;4.35;;;21.20;99.90;;;;;;5054112;28;20025;-55
2024/03/11 11:23:27;;;;;;;5.30;3.25;;;21.20;99.90;;;;;;5036527;28;20021;-54
2024/03/11 11:25:57;;;;;;;5.25;3.47;;;21.20;99.90;;;;;;5053282;28;20040;-55
2024/03/11 11:28:36;;;;;;;7.35;3.38;;;21.30;99.90;;;;;;5036358;28;20105;-55
2024/03/11 11:31:26;;;;;;;5.30;3.90;;;21.30;99.90;;;;;;5053971;28;20024;-54
2024/03/11 11:33:54;;;;;;;6.75;3.65;;;21.30;99.90;;;;;;5053924;28;20113;-55
2024/03/11 11:36:32;;;;;;;7.68;3.72;;;21.40;99.90;;;;;;5053861;28;20063;-55
2024/03/11 11:41:39;;;;;;;8.02;3.60;;;21.40;99.90;;;;;;5053741;28;20032;-54
2024/03/11 11:44:07;;;;;;;7.60;3.42;;;21.50;99.90;;;;;;5036022;28;20048;-54
2024/03/11 11:46:44;;;;;;;4.75;3.50;;;21.50;99.90;;;;;;5053664;28;20079;-55
2024/03/11 11:49:21;;;;;;;6.57;3.75;;;21.50;99.90;;;;;;5035625;28;20068;-55
2024/03/11 11:51:54;;;;;;;8.35;3.90;;;21.50;99.90;;;;;;5035638;28;20032;-55
2024/03/11 11:54:25;;;;;;;4.78;3.05;;;21.60;99.90;;;;;;5053558;28;20013;-55
2024/03/11 11:57:10;;;;;;;5.63;3.83;;;21.60;99.90;;;;;;5053495;28;20111;-56
2024/03/11 11:59:40;;;;;;;6.28;3.70;;;21.60;99.90;;;;;;5053464;28;20435;-55
2024/03/11 12:02:15;;;;;;;7.80;3.60;;;21.60;99.90;;;;;;5053289;28;20045;-55
2024/03/11 12:04:55;;;;;;;5.78;3.50;;;21.70;99.90;;;;;;5053229;28;20116;-55
2024/03/11 12:07:22;;;;;;;6.10;3.83;;;21.70;99.90;;;;;;5053238;28;20033;-55
2024/03/11 12:09:59;;;;;;;7.30;3.85;;;21.70;99.90;;;;;;5053379;28;20100;-55
2024/03/11 12:12:29;;;;;;;6.28;3.08;;;21.80;99.90;;;;;;5053137;28;20040;-54
2024/03/11 12:14:56;;;;;;;7.15;2.90;;;21.80;99.90;;;;;;5053189;28;20040;-55
2024/03/11 12:17:31;;;;;;;6.68;3.75;;;21.80;99.90;;;;;;5052940;28;20355;-54
2024/03/11 12:20:19;;;;;;;5.10;3.40;;;21.80;99.90;;;;;;5052522;28;20028;-55
2024/03/11 12:22:47;;;;;;;4.15;3.20;;;21.90;99.90;;;;;;5053170;28;20021;-55
2024/03/11 12:25:14;;;;;;;4.97;3.47;;;21.90;99.90;;;;;;5052985;28;20192;-54
2024/03/11 12:27:44;;;;;;;6.30;4.03;;;21.90;99.90;;;;;;5067627;28;20020;-56
2024/03/11 12:30:19;;;;;;;24.73;4.95;;;21.90;99.90;;;;;;5072875;28;20549;-55
2024/03/11 12:32:58;;;;;;;6.75;3.67;;;21.90;99.90;;;;;;5073424;28;20099;-56
2024/03/11 12:35:28;;;;;;;8.55;3.55;;;22.00;99.90;;;;;;5071950;28;20020;-55
2024/03/11 12:37:54;;;;;;;6.40;3.55;;;22.00;99.90;;;;;;5072411;28;20377;-55
2024/03/11 12:40:20;;;;;;;6.82;3.70;;;22.00;99.90;;;;;;5072276;28;20024;-55
2024/03/11 12:42:48;;;;;;;7.65;2.83;;;22.10;99.90;;;;;;5048923;28;20025;-54
2024/03/11 12:45:15;;;;;;;8.65;4.53;;;22.10;99.90;;;;;;5053934;28;20481;-56
2024/03/11 12:47:43;;;;;;;9.43;4.50;;;22.10;99.90;;;;;;5071738;28;20028;-56
2024/03/11 12:50:11;;;;;;;6.30;3.75;;;22.10;99.90;;;;;;5053722;28;20041;-57
2024/03/11 12:52:40;;;;;;;7.95;4.45;;;22.10;99.90;;;;;;5054475;28;20426;-56
2024/03/11 12:55:10;;;;;;;10.02;4.32;;;22.20;99.90;;;;;;5072505;28;20032;-57
2024/03/11 12:57:38;;;;;;;10.05;5.05;;;22.20;99.90;;;;;;5054256;28;20044;-56